createdAt,value
2023-04-27T00:00:57.300Z,7.06
2023-04-27T00:03:06.717Z,7.06
2023-04-27T00:05:15.283Z,7.03
2023-04-27T00:07:24.876Z,6.97
2023-04-27T00:09:35.452Z,6.97
2023-04-27T00:11:43.447Z,6.98
2023-04-27T00:13:51.358Z,6.92
2023-04-27T00:16:01.189Z,6.89
2023-04-27T00:18:09.146Z,6.89
2023-04-27T00:20:17.052Z,6.87
2023-04-27T00:22:25.027Z,7.01
2023-04-27T00:24:36.275Z,7.19
2023-04-27T00:26:44.512Z,7.27
2023-04-27T00:28:53.098Z,7.20
2023-04-27T00:31:03.699Z,7.24
2023-04-27T00:33:12.207Z,7.16
2023-04-27T00:35:22.119Z,7.07
2023-04-27T00:37:30.545Z,7.13
2023-04-27T00:39:41.220Z,7.06
2023-04-27T00:41:49.088Z,6.99
2023-04-27T00:43:57.030Z,6.93
2023-04-27T00:46:05.492Z,6.89
2023-04-27T00:48:13.802Z,6.85
2023-04-27T00:50:30.528Z,6.83
2023-04-27T00:52:39.541Z,6.95
2023-04-27T00:54:53.431Z,6.85
2023-04-27T00:57:04.245Z,6.97
2023-04-27T00:59:12.385Z,6.95
2023-04-27T01:01:20.920Z,6.99
2023-04-27T01:03:29.679Z,6.97
2023-04-27T01:05:40.346Z,6.91
2023-04-27T01:07:49.604Z,6.82
2023-04-27T01:10:00.532Z,6.80
2023-04-27T01:12:09.334Z,6.87
2023-04-27T01:14:17.789Z,6.95
2023-04-27T01:16:25.869Z,6.89
2023-04-27T01:18:33.910Z,6.91
2023-04-27T01:20:42.556Z,6.98
2023-04-27T01:22:50.938Z,6.96
2023-04-27T01:25:01.761Z,6.99
2023-04-27T01:27:12.899Z,7.10
2023-04-27T01:29:21.572Z,7.06
2023-04-27T01:31:29.475Z,6.96
2023-04-27T01:33:37.385Z,6.97
2023-04-27T01:35:45.650Z,6.88
2023-04-27T01:37:54.254Z,6.80
2023-04-27T01:40:06.043Z,6.65
2023-04-27T01:42:13.976Z,6.63
2023-04-27T01:44:23.175Z,6.66
2023-04-27T01:46:31.211Z,6.69
2023-04-27T01:48:39.306Z,6.57
2023-04-27T01:50:47.355Z,6.63
2023-04-27T01:52:55.428Z,6.56
2023-04-27T01:55:06.541Z,6.69
2023-04-27T01:57:14.763Z,6.65
2023-04-27T01:59:22.954Z,6.57
2023-04-27T02:01:31.607Z,6.54
2023-04-27T02:03:39.708Z,6.50
2023-04-27T02:05:48.283Z,6.53
2023-04-27T02:07:56.551Z,6.48
2023-04-27T02:10:07.737Z,6.38
2023-04-27T02:12:15.865Z,6.24
2023-04-27T02:14:23.750Z,6.35
2023-04-27T02:16:31.731Z,6.37
2023-04-27T02:18:39.708Z,6.36
2023-04-27T02:20:50.753Z,6.42
2023-04-27T02:22:58.677Z,6.37
2023-04-27T02:25:11.779Z,6.26
2023-04-27T02:27:20.125Z,6.23
2023-04-27T02:29:33.209Z,6.25
2023-04-27T02:31:41.521Z,6.21
2023-04-27T02:33:49.738Z,6.14
2023-04-27T02:35:58.180Z,6.14
2023-04-27T02:38:06.898Z,6.15
2023-04-27T02:40:21.558Z,6.11
2023-04-27T02:42:29.637Z,6.14
2023-04-27T02:44:37.507Z,6.18
2023-04-27T02:46:45.388Z,6.18
2023-04-27T02:48:55.483Z,6.16
2023-04-27T02:51:07.313Z,6.30
2023-04-27T02:53:15.941Z,6.26
2023-04-27T02:55:26.279Z,6.26
2023-04-27T02:57:34.200Z,6.34
2023-04-27T02:59:43.519Z,6.38
2023-04-27T03:01:54.797Z,6.33
2023-04-27T03:04:02.795Z,6.34
2023-04-27T03:06:11.046Z,6.38
2023-04-27T03:08:19.367Z,6.35
2023-04-27T03:10:30.241Z,6.38
2023-04-27T03:12:38.679Z,6.41
2023-04-27T03:14:46.569Z,6.51
2023-04-27T03:16:56.384Z,6.45
2023-04-27T03:19:04.561Z,6.45
2023-04-27T03:21:14.447Z,6.45
2023-04-27T03:23:22.677Z,6.41
2023-04-27T03:25:36.155Z,6.44
2023-04-27T03:27:44.022Z,6.38
2023-04-27T03:29:54.756Z,6.34
2023-04-27T03:32:02.802Z,6.32
2023-04-27T03:34:10.792Z,6.35
2023-04-27T03:36:20.464Z,6.36
2023-04-27T03:38:29.267Z,6.36
2023-04-27T03:40:40.079Z,6.40
2023-04-27T03:42:48.132Z,6.28
2023-04-27T03:44:56.730Z,6.28
2023-04-27T03:47:09.337Z,6.21
2023-04-27T03:49:19.494Z,6.13
2023-04-27T03:51:27.495Z,6.09
2023-04-27T03:53:35.591Z,6.18
2023-04-27T03:55:47.979Z,6.19
2023-04-27T03:57:56.927Z,6.28
2023-04-27T04:00:05.379Z,6.22
2023-04-27T04:02:22.351Z,6.14
2023-04-27T04:04:30.614Z,6.07
2023-04-27T04:06:38.669Z,6.18
2023-04-27T04:08:47.198Z,6.14
2023-04-27T04:10:57.832Z,6.18
2023-04-27T04:13:05.807Z,6.17
2023-04-27T04:15:14.279Z,6.15
2023-04-27T04:17:22.346Z,6.12
2023-04-27T04:19:30.291Z,6.15
2023-04-27T04:21:38.493Z,6.26
2023-04-27T04:23:48.880Z,6.30
2023-04-27T04:26:00.274Z,6.12
2023-04-27T04:28:12.926Z,6.09
2023-04-27T04:30:21.104Z,6.10
2023-04-27T04:32:31.452Z,6.23
2023-04-27T04:34:39.579Z,6.28
2023-04-27T04:36:47.663Z,6.28
2023-04-27T04:38:57.391Z,6.39
2023-04-27T04:41:10.427Z,6.36
2023-04-27T04:43:19.058Z,6.44
2023-04-27T04:45:29.053Z,6.38
2023-04-27T04:47:39.850Z,6.35
2023-04-27T04:49:47.923Z,6.34
2023-04-27T04:51:55.961Z,6.30
2023-04-27T04:54:03.949Z,6.32
2023-04-27T04:56:17.145Z,6.39
2023-04-27T04:58:25.100Z,6.41
2023-04-27T05:00:33.349Z,6.47
2023-04-27T05:02:43.889Z,6.53
2023-04-27T05:04:52.453Z,6.51
2023-04-27T05:07:00.687Z,6.37
2023-04-27T05:09:09.244Z,6.50
2023-04-27T05:11:19.766Z,6.58
2023-04-27T05:13:30.047Z,6.62
2023-04-27T05:15:43.172Z,6.59
2023-04-27T05:17:51.189Z,6.89
2023-04-27T05:19:59.299Z,6.90
2023-04-27T05:22:07.185Z,6.92
2023-04-27T05:24:15.888Z,6.97
2023-04-27T05:26:26.457Z,7.10
2023-04-27T05:28:34.745Z,7.22
2023-04-27T05:30:42.908Z,7.38
2023-04-27T05:32:51.047Z,7.27
2023-04-27T05:34:59.249Z,7.16
2023-04-27T05:37:07.494Z,7.51
2023-04-27T05:39:16.057Z,7.43
2023-04-27T05:41:26.859Z,7.38
2023-04-27T05:43:38.915Z,7.54
2023-04-27T05:45:47.035Z,7.55
2023-04-27T05:47:56.208Z,7.83
2023-04-27T05:50:04.139Z,7.94
2023-04-27T05:52:12.147Z,7.74
2023-04-27T05:54:19.998Z,7.79
2023-04-27T05:56:30.727Z,8.01
2023-04-27T05:58:38.927Z,7.97
2023-04-27T06:00:47.346Z,8.07
2023-04-27T06:02:55.447Z,8.11
2023-04-27T06:05:04.799Z,8.32
2023-04-27T06:07:13.568Z,8.45
2023-04-27T06:09:21.926Z,8.69
2023-04-27T06:11:32.494Z,8.71
2023-04-27T06:13:40.429Z,9.03
2023-04-27T06:15:48.450Z,8.99
2023-04-27T06:17:56.564Z,9.33
2023-04-27T06:20:07.102Z,9.56
2023-04-27T06:22:15.043Z,9.49
2023-04-27T06:24:23.467Z,9.66
2023-04-27T06:26:34.549Z,9.44
2023-04-27T06:28:42.538Z,9.08
2023-04-27T06:30:51.182Z,9.45
2023-04-27T06:32:59.170Z,9.61
2023-04-27T06:35:07.951Z,9.60
2023-04-27T06:37:17.298Z,9.91
2023-04-27T06:39:25.272Z,10.37
2023-04-27T06:41:36.037Z,10.69
2023-04-27T06:43:44.072Z,10.79
2023-04-27T06:45:52.061Z,11.48
2023-04-27T06:48:00.040Z,11.37
2023-04-27T06:50:08.836Z,11.53
2023-04-27T06:52:17.099Z,11.69
2023-04-27T06:54:25.302Z,12.92
2023-04-27T06:56:36.127Z,12.91
2023-04-27T06:58:44.212Z,14.08
2023-04-27T07:00:52.157Z,15.52
2023-04-27T07:03:00.117Z,14.94
2023-04-27T07:05:09.046Z,14.84
2023-04-27T07:07:16.974Z,15.91
2023-04-27T07:09:27.815Z,16.00
2023-04-27T07:11:38.814Z,14.92
2023-04-27T07:13:50.227Z,14.58
2023-04-27T07:16:00.727Z,16.14
2023-04-27T07:18:17.464Z,16.77
2023-04-27T07:20:30.827Z,16.99
2023-04-27T07:22:39.415Z,17.86
2023-04-27T07:24:47.237Z,19.39
2023-04-27T07:26:58.306Z,17.79
2023-04-27T07:29:18.840Z,16.83
2023-04-27T07:31:32.013Z,15.60
2023-04-27T07:33:39.874Z,17.02
2023-04-27T07:35:47.816Z,18.19
2023-04-27T07:37:56.872Z,18.15
2023-04-27T07:40:11.231Z,20.35
2023-04-27T07:42:22.636Z,21.24
2023-04-27T07:44:30.774Z,21.26
2023-04-27T07:46:38.884Z,20.33
2023-04-27T07:48:50.469Z,18.64
2023-04-27T07:50:58.570Z,18.37
2023-04-27T07:53:06.584Z,18.37
2023-04-27T07:55:15.416Z,18.49
2023-04-27T07:57:26.090Z,17.93
2023-04-27T07:59:33.983Z,17.30
2023-04-27T08:01:42.304Z,14.80
2023-04-27T08:03:50.429Z,14.56
2023-04-27T08:05:58.983Z,14.49
2023-04-27T08:08:07.901Z,14.84
2023-04-27T08:10:16.597Z,15.23
2023-04-27T08:12:27.125Z,14.59
2023-04-27T08:14:37.357Z,14.90
2023-04-27T08:16:46.079Z,15.17
2023-04-27T08:18:54.099Z,15.24
2023-04-27T08:21:01.977Z,14.99
2023-04-27T08:23:09.944Z,13.67
2023-04-27T08:25:17.923Z,14.01
2023-04-27T08:27:28.739Z,14.38
2023-04-27T08:29:37.180Z,14.40
2023-04-27T08:31:45.188Z,14.55
2023-04-27T08:33:53.500Z,14.26
2023-04-27T08:36:02.493Z,14.57
2023-04-27T08:38:10.868Z,14.78
2023-04-27T08:40:20.060Z,14.89
2023-04-27T08:42:30.980Z,14.95
2023-04-27T08:44:41.893Z,14.83
2023-04-27T08:46:51.194Z,14.85
2023-04-27T08:48:59.691Z,14.35
2023-04-27T08:51:13.826Z,14.41
2023-04-27T08:53:22.429Z,13.92
2023-04-27T08:55:31.653Z,14.34
2023-04-27T08:57:42.257Z,13.94
2023-04-27T09:00:01.254Z,14.08
2023-04-27T09:02:09.720Z,14.14
2023-04-27T09:04:18.838Z,14.23
2023-04-27T09:06:33.307Z,14.44
2023-04-27T09:08:45.836Z,14.67
2023-04-27T09:10:55.016Z,15.16
2023-04-27T09:13:05.675Z,15.67
2023-04-27T09:15:14.196Z,15.63
2023-04-27T09:17:28.440Z,15.68
2023-04-27T09:19:36.373Z,16.21
2023-04-27T09:21:47.730Z,15.97
2023-04-27T09:23:56.186Z,16.63
2023-04-27T09:26:08.288Z,17.24
2023-04-27T09:28:19.162Z,17.42
2023-04-27T09:30:27.285Z,18.75
2023-04-27T09:32:35.467Z,19.48
2023-04-27T09:34:43.895Z,20.98
2023-04-27T09:36:52.478Z,22.13
2023-04-27T09:39:02.216Z,22.72
2023-04-27T09:41:11.334Z,22.35
2023-04-27T09:43:22.198Z,23.64
2023-04-27T09:45:30.928Z,23.24
2023-04-27T09:47:39.837Z,20.57
2023-04-27T09:49:47.840Z,19.72
2023-04-27T09:51:57.116Z,21.11
2023-04-27T09:54:06.975Z,22.01
2023-04-27T09:56:29.069Z,23.42
2023-04-27T09:59:02.720Z,22.49
2023-04-27T10:01:22.069Z,22.10
2023-04-27T10:03:36.258Z,21.92
2023-04-27T10:06:10.900Z,21.64
2023-04-27T10:08:19.193Z,20.50
2023-04-27T10:10:27.389Z,19.65
2023-04-27T10:12:38.633Z,19.72
2023-04-27T10:14:57.273Z,21.04
2023-04-27T10:17:14.104Z,21.88
2023-04-27T10:19:22.835Z,21.95
2023-04-27T10:21:30.887Z,21.84
2023-04-27T10:23:50.758Z,21.07
2023-04-27T10:25:58.922Z,21.34
2023-04-27T10:28:08.505Z,18.80
2023-04-27T10:30:22.195Z,19.78
2023-04-27T10:32:33.511Z,19.49
2023-04-27T10:34:42.787Z,20.35
2023-04-27T10:36:50.805Z,20.41
2023-04-27T10:38:59.914Z,20.22
2023-04-27T10:41:08.128Z,20.57
2023-04-27T10:43:17.741Z,20.78
2023-04-27T10:45:37.355Z,21.18
2023-04-27T10:47:47.277Z,21.23
2023-04-27T10:49:57.903Z,21.01
2023-04-27T10:52:06.512Z,19.71
2023-04-27T10:54:15.147Z,20.08
2023-04-27T10:56:25.080Z,18.96
2023-04-27T10:58:45.250Z,18.87
2023-04-27T11:00:59.150Z,19.37
2023-04-27T11:03:21.271Z,19.46
2023-04-27T11:05:33.953Z,19.56
2023-04-27T11:07:45.696Z,19.10
2023-04-27T11:09:53.709Z,18.82
2023-04-27T11:12:02.050Z,18.51
2023-04-27T11:14:11.784Z,17.78
2023-04-27T11:16:22.417Z,17.26
2023-04-27T11:18:36.496Z,17.22
2023-04-27T11:20:44.574Z,16.91
2023-04-27T11:22:52.889Z,17.21
2023-04-27T11:25:00.905Z,16.58
2023-04-27T11:27:08.893Z,16.49
2023-04-27T11:29:17.215Z,16.78
2023-04-27T11:31:28.633Z,16.94
2023-04-27T11:33:37.022Z,17.36
2023-04-27T11:35:45.453Z,16.77
2023-04-27T11:38:02.273Z,17.05
2023-04-27T11:40:12.365Z,16.61
2023-04-27T11:42:22.376Z,16.73
2023-04-27T11:44:30.451Z,16.06
2023-04-27T11:46:42.643Z,16.39
2023-04-27T11:48:50.923Z,16.92
2023-04-27T11:51:02.125Z,16.62
2023-04-27T11:53:10.305Z,17.39
2023-04-27T11:55:18.848Z,17.63
2023-04-27T11:57:29.173Z,18.19
2023-04-27T11:59:37.159Z,18.17
2023-04-27T12:01:47.979Z,18.48
2023-04-27T12:03:56.944Z,18.41
2023-04-27T12:06:21.363Z,18.51
2023-04-27T12:08:33.849Z,18.24
2023-04-27T12:10:42.060Z,18.28
2023-04-27T12:12:49.967Z,17.44
2023-04-27T12:14:58.912Z,17.82
2023-04-27T12:17:09.549Z,17.51
2023-04-27T12:19:17.679Z,17.68
2023-04-27T12:21:25.940Z,16.40
2023-04-27T12:23:34.238Z,16.24
2023-04-27T12:25:44.329Z,16.35
2023-04-27T12:27:53.716Z,17.04
2023-04-27T12:30:02.004Z,17.10
2023-04-27T12:32:12.484Z,17.72
2023-04-27T12:34:20.969Z,17.93
2023-04-27T12:36:29.750Z,17.86
2023-04-27T12:38:37.843Z,16.83
2023-04-27T12:40:46.257Z,17.46
2023-04-27T12:42:54.090Z,17.81
2023-04-27T12:45:02.540Z,18.06
2023-04-27T12:47:20.013Z,18.39
2023-04-27T12:49:36.638Z,18.65
2023-04-27T12:51:45.772Z,18.53
2023-04-27T12:53:53.623Z,18.58
2023-04-27T12:56:04.799Z,18.84
2023-04-27T12:58:12.833Z,18.71
2023-04-27T13:00:21.620Z,18.71
2023-04-27T13:02:33.307Z,17.98
2023-04-27T13:04:43.807Z,18.25
2023-04-27T13:06:51.722Z,18.33
2023-04-27T13:08:59.852Z,18.92
2023-04-27T13:11:08.000Z,19.35
2023-04-27T13:13:15.935Z,19.31
2023-04-27T13:15:24.172Z,19.65
2023-04-27T13:17:34.858Z,20.12
2023-04-27T13:19:43.020Z,19.86
2023-04-27T13:21:51.270Z,19.77
2023-04-27T13:24:01.575Z,20.02
2023-04-27T13:26:10.120Z,20.21
2023-04-27T13:28:18.133Z,20.20
2023-04-27T13:30:26.107Z,20.59
2023-04-27T13:32:36.831Z,20.26
2023-04-27T13:34:44.764Z,19.99
2023-04-27T13:36:52.811Z,19.94
2023-04-27T13:39:00.778Z,19.74
2023-04-27T13:41:09.392Z,19.28
2023-04-27T13:43:17.319Z,19.14
2023-04-27T13:45:25.430Z,19.29
2023-04-27T13:47:37.173Z,19.19
2023-04-27T13:49:45.705Z,19.17
2023-04-27T13:51:53.945Z,19.32
2023-04-27T13:54:01.855Z,19.31
2023-04-27T13:56:10.380Z,19.04
2023-04-27T13:58:18.393Z,18.97
2023-04-27T14:00:28.973Z,18.91
2023-04-27T14:02:40.151Z,19.00
2023-04-27T14:04:48.272Z,19.12
2023-04-27T14:06:56.431Z,18.45
2023-04-27T14:09:04.381Z,18.68
2023-04-27T14:11:15.267Z,18.55
2023-04-27T14:13:23.199Z,18.40
2023-04-27T14:15:31.318Z,18.69
2023-04-27T14:17:41.981Z,18.58
2023-04-27T14:19:50.012Z,18.66
2023-04-27T14:22:01.213Z,18.68
2023-04-27T14:24:09.587Z,18.16
2023-04-27T14:26:17.607Z,18.42
2023-04-27T14:28:25.560Z,18.64
2023-04-27T14:30:35.040Z,18.73
2023-04-27T14:32:46.122Z,19.04
2023-04-27T14:34:54.507Z,18.97
2023-04-27T14:37:02.594Z,19.01
2023-04-27T14:39:10.984Z,19.10
2023-04-27T14:41:19.263Z,19.14
2023-04-27T14:43:27.307Z,19.09
2023-04-27T14:45:47.807Z,18.96
2023-04-27T14:48:02.312Z,18.89
2023-04-27T14:50:11.888Z,18.91
2023-04-27T14:52:19.752Z,18.91
2023-04-27T14:54:28.035Z,18.63
2023-04-27T14:56:36.122Z,19.00
2023-04-27T14:58:44.289Z,19.30
2023-04-27T15:00:53.331Z,19.28
2023-04-27T15:03:04.166Z,19.21
2023-04-27T15:05:12.893Z,19.34
2023-04-27T15:07:21.671Z,19.17
2023-04-27T15:09:30.370Z,18.93
2023-04-27T15:11:39.132Z,19.10
2023-04-27T15:13:49.186Z,18.38
2023-04-27T15:15:58.280Z,18.57
2023-04-27T15:18:09.352Z,18.75
2023-04-27T15:20:17.546Z,18.76
2023-04-27T15:22:29.024Z,18.81
2023-04-27T15:24:37.168Z,18.91
2023-04-27T15:26:45.034Z,18.73
2023-04-27T15:28:53.038Z,17.91
2023-04-27T15:31:01.340Z,17.77
2023-04-27T15:33:12.091Z,17.75
2023-04-27T15:35:20.197Z,18.11
2023-04-27T15:37:28.744Z,18.11
2023-04-27T15:39:36.720Z,17.98
2023-04-27T15:41:44.861Z,17.88
2023-04-27T15:43:54.323Z,17.81
2023-04-27T15:46:02.877Z,17.72
2023-04-27T15:48:14.530Z,17.74
2023-04-27T15:50:22.759Z,17.58
2023-04-27T15:52:30.733Z,17.46
2023-04-27T15:54:38.710Z,17.37
2023-04-27T15:56:48.034Z,17.44
2023-04-27T15:58:56.042Z,17.39
2023-04-27T16:01:04.150Z,17.33
2023-04-27T16:03:15.045Z,17.00
2023-04-27T16:05:23.445Z,16.90
2023-04-27T16:07:32.705Z,16.64
2023-04-27T16:09:41.211Z,16.45
2023-04-27T16:11:49.328Z,16.24
2023-04-27T16:13:57.219Z,16.49
2023-04-27T16:16:05.261Z,16.68
2023-04-27T16:18:16.366Z,16.57
2023-04-27T16:20:25.671Z,16.62
2023-04-27T16:22:34.149Z,16.70
2023-04-27T16:24:42.270Z,16.98
2023-04-27T16:26:50.810Z,16.95
2023-04-27T16:28:59.604Z,16.81
2023-04-27T16:31:07.646Z,16.52
2023-04-27T16:33:18.698Z,16.52
2023-04-27T16:35:29.395Z,16.61
2023-04-27T16:37:37.459Z,16.39
2023-04-27T16:39:45.566Z,16.31
2023-04-27T16:41:53.888Z,16.22
2023-04-27T16:44:02.470Z,16.20
2023-04-27T16:46:14.962Z,16.00
2023-04-27T16:48:25.831Z,15.88
2023-04-27T16:50:36.140Z,15.89
2023-04-27T16:52:44.831Z,15.85
2023-04-27T16:54:52.847Z,15.90
2023-04-27T16:57:00.883Z,15.93
2023-04-27T16:59:12.648Z,15.97
2023-04-27T17:01:21.156Z,16.07
2023-04-27T17:03:32.058Z,15.88
2023-04-27T17:05:40.110Z,16.02
2023-04-27T17:07:50.182Z,15.90
2023-04-27T17:09:58.249Z,15.79
2023-04-27T17:12:11.352Z,15.60
2023-04-27T17:14:19.974Z,15.56
2023-04-27T17:16:28.165Z,15.59
2023-04-27T17:18:39.326Z,15.57
2023-04-27T17:20:47.484Z,15.48
2023-04-27T17:22:55.382Z,15.47
2023-04-27T17:25:03.376Z,15.52
2023-04-27T17:27:11.524Z,15.49
2023-04-27T17:29:19.517Z,15.39
2023-04-27T17:31:27.421Z,15.26
2023-04-27T17:33:35.404Z,15.20
2023-04-27T17:35:47.439Z,15.13
2023-04-27T17:37:58.205Z,15.02
2023-04-27T17:40:09.328Z,14.85
2023-04-27T17:42:17.452Z,14.68
2023-04-27T17:44:25.299Z,14.55
2023-04-27T17:46:33.401Z,14.47
2023-04-27T17:48:42.471Z,14.38
2023-04-27T17:50:53.310Z,14.35
2023-04-27T17:53:01.616Z,14.28
2023-04-27T17:55:10.345Z,14.24
2023-04-27T17:57:20.902Z,14.24
2023-04-27T17:59:29.200Z,14.18
2023-04-27T18:01:37.168Z,14.20
2023-04-27T18:03:45.222Z,14.15
2023-04-27T18:05:55.817Z,14.07
2023-04-27T18:08:03.949Z,13.95
2023-04-27T18:10:16.647Z,13.89
2023-04-27T18:12:24.520Z,13.82
2023-04-27T18:14:32.544Z,13.75
2023-04-27T18:16:40.492Z,13.71
2023-04-27T18:18:48.620Z,13.60
2023-04-27T18:20:59.356Z,13.50
2023-04-27T18:23:07.294Z,13.42
2023-04-27T18:25:16.673Z,13.36
2023-04-27T18:27:24.640Z,13.26
2023-04-27T18:29:32.744Z,13.21
2023-04-27T18:31:40.799Z,13.13
2023-04-27T18:33:49.478Z,13.11
2023-04-27T18:35:59.971Z,13.03
2023-04-27T18:38:08.484Z,13.02
2023-04-27T18:40:17.478Z,12.97
2023-04-27T18:42:26.529Z,12.90
2023-04-27T18:44:34.506Z,12.82
2023-04-27T18:46:42.413Z,12.91
2023-04-27T18:48:50.301Z,12.87
2023-04-27T18:51:01.055Z,12.76
2023-04-27T18:53:09.173Z,12.63
2023-04-27T18:55:18.391Z,12.56
2023-04-27T18:57:26.742Z,12.52
2023-04-27T18:59:34.875Z,12.50
2023-04-27T19:01:43.062Z,12.86
2023-04-27T19:03:51.528Z,12.74
2023-04-27T19:06:02.510Z,12.74
2023-04-27T19:08:10.531Z,12.58
2023-04-27T19:10:18.731Z,12.66
2023-04-27T19:12:30.389Z,12.64
2023-04-27T19:14:38.626Z,12.57
2023-04-27T19:16:46.758Z,12.47
2023-04-27T19:18:54.803Z,12.44
2023-04-27T19:21:08.374Z,12.53
2023-04-27T19:23:19.365Z,12.36
2023-04-27T19:25:27.811Z,12.27
2023-04-27T19:27:35.873Z,12.28
2023-04-27T19:29:54.624Z,12.21
2023-04-27T19:32:03.253Z,12.15
2023-04-27T19:34:11.177Z,12.01
2023-04-27T19:36:21.699Z,11.91
2023-04-27T19:38:30.634Z,11.78
2023-04-27T19:40:38.858Z,11.71
2023-04-27T19:42:47.019Z,11.68
2023-04-27T19:44:58.502Z,11.65
2023-04-27T19:47:07.048Z,11.74
2023-04-27T19:49:15.998Z,11.82
2023-04-27T19:51:26.930Z,11.86
2023-04-27T19:53:35.257Z,11.80
2023-04-27T19:55:43.644Z,11.77
2023-04-27T19:57:52.470Z,11.67
2023-04-27T20:00:00.466Z,11.68
2023-04-27T20:02:08.595Z,11.76
2023-04-27T20:04:19.271Z,11.81
2023-04-27T20:06:30.416Z,11.83
2023-04-27T20:08:38.526Z,11.79
2023-04-27T20:10:46.523Z,11.74
2023-04-27T20:12:57.160Z,11.80
2023-04-27T20:15:05.478Z,12.01
2023-04-27T20:17:26.389Z,11.87
2023-04-27T20:19:35.437Z,11.71
2023-04-27T20:21:46.823Z,11.64
2023-04-27T20:23:55.224Z,11.71
2023-04-27T20:26:03.461Z,11.66
2023-04-27T20:28:14.484Z,11.53
2023-04-27T20:30:22.977Z,11.52
2023-04-27T20:32:30.936Z,11.41
2023-04-27T20:34:39.121Z,11.38
2023-04-27T20:37:07.004Z,11.29
2023-04-27T20:39:16.217Z,11.41
2023-04-27T20:41:25.080Z,11.46
2023-04-27T20:43:39.352Z,11.38
2023-04-27T20:45:49.608Z,11.24
2023-04-27T20:47:57.718Z,11.16
2023-04-27T20:50:05.836Z,11.04
2023-04-27T20:52:16.449Z,10.97
2023-04-27T20:54:26.799Z,10.97
2023-04-27T20:56:35.069Z,10.98
2023-04-27T20:58:42.975Z,11.06
2023-04-27T21:00:51.576Z,11.06
2023-04-27T21:03:03.910Z,11.13
2023-04-27T21:05:12.713Z,11.11
2023-04-27T21:07:25.545Z,11.10
2023-04-27T21:09:35.123Z,11.12
2023-04-27T21:11:43.101Z,11.02
2023-04-27T21:13:51.072Z,10.97
2023-04-27T21:15:59.034Z,10.93
2023-04-27T21:18:13.435Z,10.98
2023-04-27T21:20:24.156Z,10.93
2023-04-27T21:22:34.842Z,11.13
2023-04-27T21:24:42.751Z,11.30
2023-04-27T21:26:50.647Z,11.36
2023-04-27T21:28:59.017Z,11.38
2023-04-27T21:31:07.065Z,11.31
2023-04-27T21:33:15.286Z,11.27
2023-04-27T21:35:23.307Z,11.24
2023-04-27T21:37:31.442Z,11.32
2023-04-27T21:39:41.886Z,11.32
2023-04-27T21:41:49.980Z,11.34
2023-04-27T21:43:58.102Z,11.27
2023-04-27T21:46:06.034Z,11.36
2023-04-27T21:48:13.927Z,11.37
2023-04-27T21:50:22.005Z,11.39
2023-04-27T21:52:30.039Z,11.34
2023-04-27T21:54:37.848Z,11.34
2023-04-27T21:56:48.513Z,11.41
2023-04-27T21:59:06.357Z,11.32
2023-04-27T22:01:15.283Z,11.33
2023-04-27T22:03:24.197Z,11.34
2023-04-27T22:05:33.624Z,11.34
2023-04-27T22:07:41.621Z,11.31
2023-04-27T22:09:49.845Z,11.19
2023-04-27T22:12:00.409Z,11.14
2023-04-27T22:14:08.634Z,11.23
2023-04-27T22:16:16.901Z,11.13
2023-04-27T22:18:24.856Z,11.07
2023-04-27T22:20:33.145Z,10.98
2023-04-27T22:22:41.223Z,10.90
2023-04-27T22:24:49.183Z,10.97
2023-04-27T22:26:57.134Z,10.86
2023-04-27T22:29:07.586Z,10.88
2023-04-27T22:31:15.458Z,10.89
2023-04-27T22:33:23.477Z,10.80
2023-04-27T22:35:31.890Z,10.70
2023-04-27T22:37:39.973Z,10.65
2023-04-27T22:39:48.078Z,10.65
2023-04-27T22:41:56.045Z,10.66
2023-04-27T22:44:04.161Z,10.62
2023-04-27T22:46:14.630Z,10.56
2023-04-27T22:48:22.564Z,10.53
2023-04-27T22:50:31.718Z,10.49
2023-04-27T22:52:42.466Z,10.38
2023-04-27T22:54:50.589Z,10.35
2023-04-27T22:56:59.403Z,10.31
2023-04-27T22:59:07.277Z,10.39
2023-04-27T23:01:17.856Z,10.54
2023-04-27T23:03:26.201Z,10.58
2023-04-27T23:05:34.150Z,10.51
2023-04-27T23:07:43.031Z,10.44
2023-04-27T23:09:51.000Z,10.39
2023-04-27T23:11:59.237Z,10.38
2023-04-27T23:14:07.752Z,10.44
2023-04-27T23:16:18.557Z,10.41
2023-04-27T23:18:26.444Z,10.41
2023-04-27T23:20:34.486Z,10.38
2023-04-27T23:22:44.089Z,10.46
2023-04-27T23:24:52.009Z,10.44
2023-04-27T23:27:00.477Z,10.51
2023-04-27T23:29:11.217Z,10.55
2023-04-27T23:31:21.686Z,10.53
2023-04-27T23:33:29.560Z,10.54
2023-04-27T23:35:37.519Z,10.48
2023-04-27T23:37:45.492Z,10.61
2023-04-27T23:39:53.541Z,10.64
2023-04-27T23:42:02.086Z,10.58
2023-04-27T23:44:09.952Z,10.66
2023-04-27T23:46:17.999Z,10.70
2023-04-27T23:48:28.620Z,10.69
2023-04-27T23:50:36.650Z,10.67
2023-04-27T23:52:45.360Z,10.57
2023-04-27T23:54:53.286Z,10.59
2023-04-27T23:57:01.551Z,10.71
2023-04-27T23:59:10.924Z,10.75
